Desdemona, Texas
Current Conditions -  °F | °C
As of 1:15 PM on Saturday 25 Oct 2014 (Local Time) from KSEP Reporting Station
Clear Clear  
Wind Chill: 84°   Ceiling: Unl
Heat Index: 84°   Visibility: 10mi
Dew Point: 59°   Wind: 3mph
Humidity: 42%   Direction: 230°SW
Pressure: 30.17"   Gusts: NA
Location:  32.27°N, 98.55°W
Report Text: KSEP 251815Z AUTO 23003KT 10SM CLR 29/15 A3017 RMK AO2 T02890149
Loading
Personal Weather Stations






























Interactive Weather Map
Tropical Storm Tracking
New forecast layout! Learn more

10-Day Weather Forecast

Advertisements
Track Severe Weather on mobile